createdAt,value
2016-11-17T00:00:04.078Z,0
2016-11-17T00:01:14.404Z,0
2016-11-17T00:02:24.733Z,0
2016-11-17T00:03:35.093Z,0
2016-11-17T00:04:45.421Z,0
2016-11-17T00:05:55.771Z,0
2016-11-17T00:07:06.125Z,0
2016-11-17T00:08:16.445Z,0
2016-11-17T00:09:26.770Z,0
2016-11-17T00:10:37.298Z,0
2016-11-17T00:11:48.121Z,0
2016-11-17T00:12:58.447Z,0
2016-11-17T00:14:08.772Z,0
2016-11-17T00:15:19.093Z,0
2016-11-17T00:16:29.449Z,0
2016-11-17T00:17:39.767Z,0
2016-11-17T00:18:50.087Z,0
2016-11-17T00:20:00.409Z,0
2016-11-17T00:21:10.727Z,0
2016-11-17T00:22:21.249Z,0
2016-11-17T00:23:31.571Z,0
2016-11-17T00:24:41.893Z,0
2016-11-17T00:25:52.218Z,0
2016-11-17T00:27:02.536Z,0
2016-11-17T00:28:12.854Z,0
2016-11-17T00:29:23.183Z,0
2016-11-17T00:30:48.100Z,0
2016-11-17T00:31:58.424Z,0
2016-11-17T00:33:08.750Z,0
2016-11-17T00:34:19.079Z,0
2016-11-17T00:35:29.396Z,0
2016-11-17T00:36:39.724Z,0
2016-11-17T00:37:50.052Z,0
2016-11-17T00:39:00.571Z,0
2016-11-17T00:40:11.369Z,0
2016-11-17T00:41:21.687Z,0
2016-11-17T00:42:32.008Z,0
2016-11-17T00:43:42.331Z,0
2016-11-17T00:44:52.651Z,0
2016-11-17T00:46:03.510Z,0
2016-11-17T00:47:13.832Z,0
2016-11-17T00:48:24.156Z,0
2016-11-17T00:49:34.479Z,0
2016-11-17T00:50:45.001Z,0
2016-11-17T00:51:55.319Z,0
2016-11-17T00:53:05.679Z,0
2016-11-17T00:54:16.004Z,0
2016-11-17T00:55:26.323Z,0
2016-11-17T00:56:36.646Z,0
2016-11-17T00:57:46.967Z,0
2016-11-17T00:58:57.286Z,0
2016-11-17T01:00:07.611Z,0
2016-11-17T01:01:17.933Z,0
2016-11-17T01:02:28.563Z,0
2016-11-17T01:03:39.003Z,0
2016-11-17T01:04:49.937Z,0
2016-11-17T01:06:00.371Z,0
2016-11-17T01:07:10.808Z,0
2016-11-17T01:08:21.449Z,0
2016-11-17T01:09:31.894Z,0
2016-11-17T01:10:42.331Z,0
2016-11-17T01:11:52.772Z,0
2016-11-17T01:13:03.214Z,0
2016-11-17T01:14:13.659Z,0
2016-11-17T01:15:24.098Z,0
2016-11-17T01:16:49.077Z,0
2016-11-17T01:17:59.517Z,0
2016-11-17T01:19:10.154Z,0
2016-11-17T01:20:20.592Z,0
2016-11-17T01:21:31.029Z,0
2016-11-17T01:22:41.468Z,0
2016-11-17T01:23:51.933Z,0
2016-11-17T01:25:02.575Z,0
2016-11-17T01:26:13.023Z,0
2016-11-17T01:29:02.995Z,0
2016-11-17T01:30:13.632Z,0
2016-11-17T01:31:24.567Z,0
2016-11-17T01:32:35.009Z,0
2016-11-17T01:33:45.446Z,0
2016-11-17T01:34:55.895Z,0
2016-11-17T01:36:06.338Z,0
2016-11-17T01:37:31.241Z,0
2016-11-17T01:38:41.568Z,0
2016-11-17T01:39:51.892Z,0
2016-11-17T01:41:02.255Z,0
2016-11-17T01:42:12.582Z,0
2016-11-17T01:43:22.903Z,0
2016-11-17T01:44:33.229Z,0
2016-11-17T01:45:43.552Z,0
2016-11-17T01:46:54.076Z,0
2016-11-17T01:48:18.965Z,0
2016-11-17T01:49:43.855Z,0
2016-11-17T01:50:54.586Z,0
2016-11-17T01:52:05.366Z,0
2016-11-17T01:53:30.486Z,0
2016-11-17T01:54:40.824Z,0
2016-11-17T01:55:51.235Z,0
2016-11-17T01:57:16.541Z,0
2016-11-17T01:58:27.021Z,0
2016-11-17T01:59:37.349Z,0
2016-11-17T02:00:48.158Z,0
2016-11-17T02:01:58.686Z,0
2016-11-17T02:03:09.131Z,0
2016-11-17T02:04:19.540Z,0
2016-11-17T02:05:30.184Z,0
2016-11-17T02:06:40.512Z,0
2016-11-17T02:07:51.334Z,0
2016-11-17T02:09:01.900Z,0
2016-11-17T02:10:12.226Z,0
2016-11-17T02:11:22.865Z,0
2016-11-17T02:12:33.442Z,0
2016-11-17T02:13:44.270Z,0
2016-11-17T02:14:54.872Z,0
2016-11-17T02:16:05.462Z,0
2016-11-17T02:17:16.111Z,0
2016-11-17T02:18:26.802Z,0
2016-11-17T02:19:37.331Z,0
2016-11-17T02:20:47.841Z,0
2016-11-17T02:21:58.317Z,0
2016-11-17T02:23:08.871Z,0
2016-11-17T02:24:19.491Z,0
2016-11-17T02:25:30.182Z,0
2016-11-17T02:26:40.632Z,0
2016-11-17T02:27:51.224Z,0
2016-11-17T02:29:01.869Z,0
2016-11-17T02:30:12.421Z,0
2016-11-17T02:31:22.981Z,0
2016-11-17T02:32:33.406Z,0
2016-11-17T02:33:43.806Z,0
2016-11-17T02:34:54.167Z,0
2016-11-17T02:36:04.610Z,0
2016-11-17T02:37:14.998Z,0
2016-11-17T02:38:25.376Z,0
2016-11-17T02:39:35.744Z,0
2016-11-17T02:40:46.171Z,0
2016-11-17T02:41:56.542Z,0
2016-11-17T02:43:07.918Z,0
2016-11-17T02:44:18.316Z,0
2016-11-17T02:45:28.870Z,0
2016-11-17T02:46:53.846Z,0
2016-11-17T02:48:04.419Z,0
2016-11-17T02:49:14.837Z,0
2016-11-17T02:51:50.272Z,0
2016-11-17T02:53:15.740Z,0
2016-11-17T02:54:26.191Z,0
2016-11-17T02:55:36.636Z,0
2016-11-17T02:56:47.073Z,0
2016-11-17T02:57:57.549Z,0
2016-11-17T02:59:08.030Z,0
2016-11-17T03:00:18.461Z,0
2016-11-17T03:01:28.877Z,0
2016-11-17T03:02:39.311Z,0
2016-11-17T03:03:50.275Z,0
2016-11-17T03:05:00.902Z,0
2016-11-17T03:06:11.322Z,0
2016-11-17T03:07:21.766Z,0
2016-11-17T03:08:32.190Z,0
2016-11-17T03:09:42.601Z,0
2016-11-17T03:10:53.043Z,0
2016-11-17T03:12:03.479Z,0
2016-11-17T03:13:13.961Z,0
2016-11-17T03:14:24.397Z,0
2016-11-17T03:15:34.815Z,0
2016-11-17T03:18:10.878Z,0
2016-11-17T03:19:21.343Z,0
2016-11-17T03:20:31.818Z,0
2016-11-17T03:21:56.845Z,0
2016-11-17T03:23:07.778Z,0
2016-11-17T03:24:18.255Z,0
2016-11-17T03:25:28.748Z,0
2016-11-17T03:26:39.243Z,0
2016-11-17T03:27:49.752Z,0
2016-11-17T03:29:00.277Z,0
2016-11-17T03:30:10.772Z,0
2016-11-17T03:31:21.289Z,0
2016-11-17T03:32:31.820Z,0
2016-11-17T03:33:56.853Z,0
2016-11-17T03:35:07.316Z,0
2016-11-17T03:37:43.289Z,0
2016-11-17T03:38:53.889Z,0
2016-11-17T03:40:04.331Z,0
2016-11-17T03:41:14.732Z,0
2016-11-17T03:42:25.149Z,0
2016-11-17T03:43:35.547Z,0
2016-11-17T03:44:46.135Z,0
2016-11-17T03:45:56.534Z,0
2016-11-17T03:47:06.981Z,0
2016-11-17T03:48:17.397Z,0
2016-11-17T03:49:27.787Z,0
2016-11-17T03:50:38.427Z,0
2016-11-17T03:51:49.317Z,0
2016-11-17T03:53:14.274Z,0
2016-11-17T03:54:24.712Z,0
2016-11-17T03:55:35.181Z,0
2016-11-17T03:56:45.580Z,0
2016-11-17T03:57:55.968Z,0
2016-11-17T03:59:06.382Z,0
2016-11-17T04:00:31.543Z,0
2016-11-17T04:01:41.980Z,0
2016-11-17T04:02:52.394Z,0
2016-11-17T04:04:02.809Z,0
2016-11-17T04:05:13.258Z,0
2016-11-17T04:06:23.896Z,0
2016-11-17T04:07:34.334Z,0
2016-11-17T04:08:44.727Z,0
2016-11-17T04:09:55.164Z,0
2016-11-17T04:11:05.603Z,0
2016-11-17T04:12:16.242Z,0
2016-11-17T04:13:26.656Z,0
2016-11-17T04:14:37.060Z,0
2016-11-17T04:15:47.438Z,0
2016-11-17T04:16:57.880Z,0
2016-11-17T04:18:08.447Z,0
2016-11-17T04:19:18.888Z,0
2016-11-17T04:20:29.277Z,0
2016-11-17T04:21:39.691Z,0
2016-11-17T04:22:50.080Z,0
2016-11-17T04:24:00.698Z,0
2016-11-17T04:25:11.125Z,0
2016-11-17T04:26:22.000Z,0
2016-11-17T04:27:32.396Z,0
2016-11-17T04:28:42.800Z,0
2016-11-17T04:29:53.453Z,0
2016-11-17T04:31:03.854Z,0
2016-11-17T04:32:14.247Z,0
2016-11-17T04:33:24.576Z,0
2016-11-17T04:34:34.899Z,0
2016-11-17T04:35:45.419Z,0
2016-11-17T04:36:55.735Z,0
2016-11-17T04:38:06.059Z,0
2016-11-17T04:39:16.380Z,0
2016-11-17T04:40:26.699Z,0
2016-11-17T04:41:37.224Z,0
2016-11-17T04:42:47.585Z,0
2016-11-17T04:43:57.915Z,0
2016-11-17T04:45:08.712Z,0
2016-11-17T04:46:19.031Z,0
2016-11-17T04:47:29.358Z,0
2016-11-17T04:48:39.676Z,0
2016-11-17T04:50:04.600Z,0
2016-11-17T04:51:29.490Z,0
2016-11-17T04:52:39.849Z,0
2016-11-17T04:53:50.171Z,0
2016-11-17T04:55:00.489Z,0
2016-11-17T04:56:10.826Z,0
2016-11-17T04:57:21.142Z,0
2016-11-17T04:58:31.766Z,0
2016-11-17T04:59:42.202Z,0
2016-11-17T05:00:52.639Z,0
2016-11-17T05:02:03.113Z,0
2016-11-17T05:03:13.553Z,0
2016-11-17T05:04:24.189Z,0
2016-11-17T05:05:34.632Z,0
2016-11-17T05:06:45.106Z,0
2016-11-17T05:07:55.568Z,0
2016-11-17T05:09:06.004Z,0
2016-11-17T05:10:16.640Z,0
2016-11-17T05:11:27.078Z,0
2016-11-17T05:12:37.517Z,0
2016-11-17T05:13:47.960Z,0
2016-11-17T05:14:58.395Z,0
2016-11-17T05:16:08.833Z,0
2016-11-17T05:17:19.266Z,0
2016-11-17T05:18:29.701Z,0
2016-11-17T05:19:40.628Z,0
2016-11-17T05:20:51.069Z,0
2016-11-17T05:22:01.713Z,0
2016-11-17T05:23:12.149Z,0
2016-11-17T05:24:22.614Z,0
2016-11-17T05:25:33.054Z,0
2016-11-17T05:26:43.490Z,0
2016-11-17T05:27:53.930Z,0
2016-11-17T05:29:04.369Z,0
2016-11-17T05:30:14.809Z,0
2016-11-17T05:31:25.249Z,0
2016-11-17T05:32:35.677Z,0
2016-11-17T05:33:46.195Z,0
2016-11-17T05:34:56.518Z,0
2016-11-17T05:36:06.878Z,0
2016-11-17T05:37:17.198Z,0
2016-11-17T05:38:27.522Z,0
2016-11-17T05:39:37.843Z,0
2016-11-17T05:40:48.164Z,0
2016-11-17T05:41:58.484Z,0
2016-11-17T05:43:08.802Z,0
2016-11-17T05:44:19.123Z,0
2016-11-17T05:45:29.641Z,0
2016-11-17T05:46:39.958Z,0
2016-11-17T05:47:50.277Z,0
2016-11-17T05:49:00.594Z,0
2016-11-17T05:50:10.914Z,0
2016-11-17T05:51:21.441Z,0
2016-11-17T05:52:31.760Z,0
2016-11-17T05:53:42.082Z,0
2016-11-17T05:54:52.402Z,0
2016-11-17T05:56:02.725Z,0
2016-11-17T05:57:13.246Z,0
2016-11-17T05:58:23.565Z,0
2016-11-17T05:59:33.886Z,0
2016-11-17T06:00:44.208Z,0
2016-11-17T06:01:54.529Z,0
2016-11-17T06:03:05.049Z,0
2016-11-17T06:04:15.399Z,0
2016-11-17T06:05:25.716Z,0
2016-11-17T06:06:36.070Z,0
2016-11-17T06:08:01.161Z,0
2016-11-17T06:09:11.480Z,0
2016-11-17T06:10:21.801Z,0
2016-11-17T06:11:32.171Z,0
2016-11-17T06:12:42.499Z,0
2016-11-17T06:13:52.819Z,0
2016-11-17T06:15:03.146Z,0
2016-11-17T06:16:13.471Z,0
2016-11-17T06:17:23.803Z,0
2016-11-17T06:18:34.118Z,0
2016-11-17T06:19:44.915Z,0
2016-11-17T06:20:55.240Z,0
2016-11-17T06:22:05.561Z,0
2016-11-17T06:23:15.913Z,0
2016-11-17T06:24:26.235Z,0
2016-11-17T06:25:36.563Z,0
2016-11-17T06:26:46.926Z,0
2016-11-17T06:27:57.248Z,0
2016-11-17T06:29:07.571Z,0
2016-11-17T06:30:32.935Z,0
2016-11-17T06:31:43.254Z,0
2016-11-17T06:32:53.570Z,0
2016-11-17T06:34:03.889Z,0
2016-11-17T06:35:14.211Z,0
2016-11-17T06:36:24.766Z,0
2016-11-17T06:37:35.096Z,0
2016-11-17T06:38:45.412Z,0
2016-11-17T06:39:55.737Z,0
2016-11-17T06:41:06.095Z,0
2016-11-17T06:42:31.067Z,0
2016-11-17T06:43:41.505Z,0
2016-11-17T06:44:51.950Z,0
2016-11-17T06:46:02.389Z,0
2016-11-17T06:47:12.828Z,0
2016-11-17T06:49:48.241Z,0
2016-11-17T06:50:58.678Z,0
2016-11-17T06:52:09.356Z,0
2016-11-17T06:53:19.794Z,0
2016-11-17T06:54:30.273Z,0
2016-11-17T06:55:40.709Z,0
2016-11-17T06:56:51.145Z,0
2016-11-17T06:58:01.781Z,0
2016-11-17T06:59:12.219Z,0
2016-11-17T07:00:22.654Z,0
2016-11-17T07:01:33.121Z,0
2016-11-17T07:02:43.563Z,0
2016-11-17T07:05:19.209Z,0
2016-11-17T07:06:29.650Z,0
2016-11-17T07:07:40.089Z,0
2016-11-17T07:08:50.527Z,0
2016-11-17T07:10:00.974Z,0
2016-11-17T07:11:11.906Z,0
2016-11-17T07:12:22.348Z,0
2016-11-17T07:13:32.785Z,0
2016-11-17T07:14:43.419Z,0
2016-11-17T07:15:53.855Z,0
2016-11-17T07:17:04.293Z,0
2016-11-17T07:18:14.733Z,0
2016-11-17T07:19:25.168Z,0
2016-11-17T07:20:35.822Z,0
2016-11-17T07:21:46.264Z,0
2016-11-17T07:22:56.827Z,0
2016-11-17T07:24:07.362Z,0
2016-11-17T07:25:17.890Z,0
2016-11-17T07:26:28.619Z,0
2016-11-17T07:27:39.216Z,0
2016-11-17T07:28:49.743Z,0
2016-11-17T07:30:00.273Z,0
2016-11-17T07:31:10.802Z,0
2016-11-17T07:32:21.533Z,0
2016-11-17T07:33:32.065Z,0
2016-11-17T07:34:42.591Z,0
2016-11-17T07:35:53.122Z,0
2016-11-17T07:37:03.686Z,0
2016-11-17T07:38:14.213Z,0
2016-11-17T07:39:24.745Z,0
2016-11-17T07:40:35.276Z,0
2016-11-17T07:41:45.807Z,0
2016-11-17T07:42:56.340Z,0
2016-11-17T07:44:07.070Z,0
2016-11-17T07:45:17.602Z,0
2016-11-17T07:46:28.133Z,0
2016-11-17T07:47:38.665Z,0
2016-11-17T07:49:04.447Z,0
2016-11-17T07:50:14.981Z,0
2016-11-17T07:51:25.540Z,0
2016-11-17T07:52:36.070Z,0
2016-11-17T07:53:46.634Z,0
2016-11-17T07:54:57.364Z,0
2016-11-17T07:56:07.926Z,0
2016-11-17T07:57:18.495Z,0
2016-11-17T07:58:29.021Z,0
2016-11-17T07:59:39.549Z,0
2016-11-17T08:00:50.280Z,0
2016-11-17T08:02:00.809Z,0
2016-11-17T08:03:11.345Z,0
2016-11-17T08:04:22.373Z,0
2016-11-17T08:05:33.403Z,0
2016-11-17T08:06:58.643Z,0
2016-11-17T08:08:09.076Z,0
2016-11-17T08:09:19.514Z,0
2016-11-17T08:10:44.492Z,0
2016-11-17T08:11:55.131Z,0
2016-11-17T08:13:05.599Z,0
2016-11-17T08:14:16.033Z,0
2016-11-17T08:15:26.477Z,0
2016-11-17T08:16:36.954Z,0
2016-11-17T08:17:47.691Z,0
2016-11-17T08:18:58.127Z,0
2016-11-17T08:20:08.565Z,0
2016-11-17T08:21:19.003Z,0
2016-11-17T08:22:29.446Z,0
2016-11-17T08:23:40.088Z,0
2016-11-17T08:24:50.420Z,0
2016-11-17T08:26:00.742Z,0
2016-11-17T08:27:11.540Z,0
2016-11-17T08:29:46.945Z,0
2016-11-17T08:30:57.265Z,0
2016-11-17T08:32:08.180Z,0
2016-11-17T08:33:18.513Z,0
2016-11-17T08:34:28.834Z,0
2016-11-17T08:35:39.157Z,0
2016-11-17T08:36:49.474Z,0
2016-11-17T08:37:59.795Z,0
2016-11-17T08:39:10.206Z,0
2016-11-17T08:40:20.525Z,0
2016-11-17T08:41:31.041Z,0
2016-11-17T08:42:41.365Z,0
2016-11-17T08:43:51.691Z,0
2016-11-17T08:45:02.009Z,0
2016-11-17T08:46:12.326Z,0
2016-11-17T08:47:22.849Z,0
2016-11-17T08:48:33.174Z,0
2016-11-17T08:49:43.497Z,0
2016-11-17T08:50:53.843Z,0
2016-11-17T08:52:04.180Z,0
2016-11-17T08:53:14.745Z,0
2016-11-17T08:54:25.095Z,0
2016-11-17T08:55:35.415Z,5
2016-11-17T08:57:00.303Z,5
2016-11-17T08:58:10.834Z,5
2016-11-17T08:59:21.153Z,5
2016-11-17T09:00:46.101Z,5
2016-11-17T09:01:56.544Z,5
2016-11-17T09:03:07.187Z,5
2016-11-17T09:04:18.109Z,5
2016-11-17T09:05:28.573Z,0
2016-11-17T09:06:39.016Z,0
2016-11-17T09:07:49.488Z,0
2016-11-17T09:09:00.132Z,0
2016-11-17T09:10:10.571Z,0
2016-11-17T09:11:21.009Z,0
2016-11-17T09:12:31.448Z,0
2016-11-17T09:13:41.903Z,0
2016-11-17T09:14:52.339Z,0
2016-11-17T09:16:02.776Z,0
2016-11-17T09:17:13.214Z,0
2016-11-17T09:18:38.195Z,0
2016-11-17T09:19:48.636Z,0
2016-11-17T09:20:59.075Z,0
2016-11-17T09:22:09.512Z,0
2016-11-17T09:23:34.495Z,0
2016-11-17T09:24:44.933Z,0
2016-11-17T09:25:55.368Z,0
2016-11-17T09:27:20.348Z,5
2016-11-17T09:28:30.783Z,5
2016-11-17T09:29:41.225Z,5
2016-11-17T09:30:51.665Z,5
2016-11-17T09:32:02.143Z,5
2016-11-17T09:33:12.583Z,5
2016-11-17T09:34:23.022Z,5
2016-11-17T09:35:33.357Z,5
2016-11-17T09:36:43.880Z,5
2016-11-17T09:37:54.207Z,5
2016-11-17T09:39:04.525Z,5
2016-11-17T09:40:14.850Z,5
2016-11-17T09:41:25.188Z,5
2016-11-17T09:42:35.739Z,0
2016-11-17T09:43:46.063Z,0
2016-11-17T09:44:56.859Z,5
2016-11-17T09:46:07.178Z,5
2016-11-17T09:47:32.741Z,10
2016-11-17T09:48:43.536Z,10
2016-11-17T09:49:53.852Z,10
2016-11-17T09:51:04.175Z,10
2016-11-17T09:52:29.063Z,10
2016-11-17T09:53:39.583Z,15
2016-11-17T09:54:49.902Z,15
2016-11-17T09:56:00.697Z,15
2016-11-17T09:57:11.018Z,15
2016-11-17T09:58:21.341Z,15
2016-11-17T09:59:31.860Z,15
2016-11-17T10:00:42.180Z,15
2016-11-17T10:01:52.503Z,15
2016-11-17T10:03:02.823Z,15
2016-11-17T10:04:13.141Z,20
2016-11-17T10:05:23.937Z,20
2016-11-17T10:06:34.256Z,20
2016-11-17T10:07:44.578Z,20
2016-11-17T10:08:54.904Z,20
2016-11-17T10:10:05.225Z,20
2016-11-17T10:11:15.545Z,20
2016-11-17T10:12:25.906Z,20
2016-11-17T10:13:36.232Z,20
2016-11-17T10:14:46.590Z,20
2016-11-17T10:15:56.912Z,20
2016-11-17T10:17:07.230Z,20
2016-11-17T10:18:17.561Z,20
2016-11-17T10:19:27.879Z,15
2016-11-17T10:20:38.205Z,15
2016-11-17T10:21:48.524Z,15
2016-11-17T10:22:58.843Z,15
2016-11-17T10:24:09.636Z,10
2016-11-17T10:25:19.962Z,15
2016-11-17T10:26:30.287Z,15
2016-11-17T10:27:40.605Z,15
2016-11-17T10:28:51.128Z,15
2016-11-17T10:30:01.450Z,15
2016-11-17T10:31:11.769Z,10
2016-11-17T10:32:22.096Z,10
2016-11-17T10:33:32.416Z,10
2016-11-17T10:34:42.938Z,10
2016-11-17T10:35:53.260Z,10
2016-11-17T10:37:03.586Z,15
2016-11-17T10:38:13.907Z,15
2016-11-17T10:39:24.232Z,10
2016-11-17T10:40:34.757Z,15
2016-11-17T10:41:59.647Z,15
2016-11-17T10:43:09.972Z,15
2016-11-17T10:44:20.292Z,15
2016-11-17T10:45:30.720Z,15
2016-11-17T10:46:41.161Z,15
2016-11-17T10:47:51.601Z,15
2016-11-17T10:49:02.043Z,15
2016-11-17T10:50:12.479Z,15
2016-11-17T10:51:23.118Z,15
2016-11-17T10:52:33.558Z,15
2016-11-17T10:53:43.996Z,15
2016-11-17T10:54:54.438Z,10
2016-11-17T10:56:19.677Z,10
2016-11-17T10:57:30.606Z,15
2016-11-17T10:58:41.044Z,15
2016-11-17T10:59:51.484Z,15
2016-11-17T11:01:01.919Z,15
2016-11-17T11:02:12.903Z,15
2016-11-17T11:03:23.342Z,15
2016-11-17T11:04:48.334Z,15
2016-11-17T11:05:58.768Z,15
2016-11-17T11:07:23.750Z,15
2016-11-17T11:08:34.187Z,15
2016-11-17T11:09:45.115Z,20
2016-11-17T11:10:55.551Z,20
2016-11-17T11:12:20.563Z,20
2016-11-17T11:13:31.001Z,25
2016-11-17T11:14:41.474Z,25
2016-11-17T11:16:06.456Z,25
2016-11-17T11:17:31.739Z,25
2016-11-17T11:18:42.192Z,25
2016-11-17T11:19:52.618Z,25
2016-11-17T11:21:02.936Z,25
2016-11-17T11:22:13.254Z,30
2016-11-17T11:23:23.778Z,30
2016-11-17T11:24:34.170Z,30
2016-11-17T11:25:45.062Z,30
2016-11-17T11:26:55.382Z,30
2016-11-17T11:28:05.708Z,30
2016-11-17T11:29:16.240Z,30
2016-11-17T11:30:26.561Z,30
2016-11-17T11:31:36.883Z,30
2016-11-17T11:32:47.716Z,30
2016-11-17T11:33:58.038Z,40
2016-11-17T11:35:08.388Z,45
2016-11-17T11:36:18.708Z,35
2016-11-17T11:37:29.027Z,35
2016-11-17T11:38:39.837Z,35
2016-11-17T11:39:50.159Z,35
2016-11-17T11:41:00.484Z,45
2016-11-17T11:42:10.807Z,50
2016-11-17T11:43:21.124Z,40
2016-11-17T11:44:31.447Z,40
2016-11-17T11:47:07.339Z,35
2016-11-17T11:48:17.658Z,30
2016-11-17T11:49:27.983Z,25
2016-11-17T11:50:38.306Z,25
2016-11-17T11:51:48.718Z,25
2016-11-17T11:52:59.333Z,25
2016-11-17T11:54:09.746Z,25
2016-11-17T11:55:20.155Z,25
2016-11-17T11:57:55.731Z,25
2016-11-17T11:59:06.147Z,25
2016-11-17T12:00:31.109Z,30
2016-11-17T12:01:41.527Z,35
2016-11-17T12:02:51.941Z,45
2016-11-17T12:04:02.353Z,45
2016-11-17T12:05:12.763Z,50
2016-11-17T12:06:37.723Z,70
2016-11-17T12:07:48.174Z,70
2016-11-17T12:08:58.590Z,65
2016-11-17T12:10:09.000Z,70
2016-11-17T12:11:19.411Z,55
2016-11-17T12:12:29.827Z,60
2016-11-17T12:13:54.786Z,45
2016-11-17T12:15:05.685Z,40
2016-11-17T12:16:16.097Z,50
2016-11-17T12:17:26.509Z,35
2016-11-17T12:18:37.407Z,30
2016-11-17T12:19:48.014Z,30
2016-11-17T12:21:12.987Z,30
2016-11-17T12:24:02.923Z,30
2016-11-17T12:25:13.541Z,30
2016-11-17T12:26:23.956Z,65
2016-11-17T12:27:48.919Z,60
2016-11-17T12:28:59.324Z,45
2016-11-17T12:30:09.733Z,65
2016-11-17T12:31:20.155Z,70
2016-11-17T12:32:30.565Z,65
2016-11-17T12:33:40.980Z,80
2016-11-17T12:34:51.900Z,75
2016-11-17T12:36:16.862Z,75
2016-11-17T12:37:27.274Z,80
2016-11-17T12:38:37.783Z,65
2016-11-17T12:39:48.196Z,75
2016-11-17T12:40:58.811Z,90
2016-11-17T12:42:09.232Z,80
2016-11-17T12:43:19.641Z,70
2016-11-17T12:44:30.062Z,50
2016-11-17T12:45:40.673Z,60
2016-11-17T12:46:51.306Z,90
2016-11-17T12:48:03.630Z,85
2016-11-17T12:49:17.445Z,85
2016-11-17T12:50:28.358Z,45
2016-11-17T12:51:38.768Z,75
2016-11-17T12:52:49.181Z,80
2016-11-17T12:53:59.593Z,80
2016-11-17T12:55:10.006Z,80
2016-11-17T12:56:20.424Z,75
2016-11-17T12:57:45.394Z,80
2016-11-17T12:58:55.809Z,75
2016-11-17T13:00:06.230Z,75
2016-11-17T13:01:16.642Z,75
2016-11-17T13:02:27.089Z,30
2016-11-17T13:03:37.511Z,65
2016-11-17T13:04:48.043Z,75
2016-11-17T13:05:59.240Z,75
2016-11-17T13:07:10.313Z,80
2016-11-17T13:08:36.580Z,75
2016-11-17T13:09:47.631Z,35
2016-11-17T13:10:58.228Z,45
2016-11-17T13:12:10.425Z,60
2016-11-17T13:13:36.025Z,80
2016-11-17T13:15:01.333Z,80
2016-11-17T13:16:12.393Z,80
2016-11-17T13:17:23.428Z,80
2016-11-17T13:18:33.966Z,75
2016-11-17T13:19:44.505Z,75
2016-11-17T13:20:55.077Z,75
2016-11-17T13:22:05.651Z,80
2016-11-17T13:23:16.188Z,85
2016-11-17T13:24:26.934Z,85
2016-11-17T13:28:28.136Z,75
2016-11-17T13:29:38.878Z,85
2016-11-17T13:30:49.415Z,85
2016-11-17T13:31:59.957Z,90
2016-11-17T13:33:10.497Z,85
2016-11-17T13:34:21.036Z,85
2016-11-17T13:35:31.571Z,85
2016-11-17T13:36:42.108Z,85
2016-11-17T13:37:52.647Z,95
2016-11-17T13:39:03.184Z,65
2016-11-17T13:40:13.722Z,95
2016-11-17T13:41:24.768Z,90
2016-11-17T13:42:35.305Z,90
2016-11-17T13:43:46.049Z,85
2016-11-17T13:44:57.086Z,85
2016-11-17T13:46:07.652Z,85
2016-11-17T13:47:18.188Z,90
2016-11-17T13:48:28.727Z,90
2016-11-17T13:49:39.261Z,90
2016-11-17T13:51:04.326Z,90
2016-11-17T13:52:15.070Z,90
2016-11-17T13:53:25.606Z,90
2016-11-17T13:54:36.150Z,90
2016-11-17T13:56:01.218Z,85
2016-11-17T13:57:11.963Z,90
2016-11-17T13:58:37.217Z,85
2016-11-17T13:59:47.756Z,90
2016-11-17T14:02:23.855Z,85
2016-11-17T14:03:34.404Z,85
2016-11-17T14:04:45.473Z,80
2016-11-17T14:06:10.543Z,90
2016-11-17T14:07:21.193Z,85
2016-11-17T14:08:46.188Z,85
2016-11-17T14:09:57.131Z,85
2016-11-17T14:11:07.574Z,85
2016-11-17T14:12:18.217Z,80
2016-11-17T14:13:28.669Z,80
2016-11-17T14:14:39.796Z,85
2016-11-17T14:16:04.791Z,80
2016-11-17T14:17:15.236Z,75
2016-11-17T14:18:25.682Z,90
2016-11-17T14:19:36.127Z,65
2016-11-17T14:20:46.570Z,70
2016-11-17T14:21:57.019Z,75
2016-11-17T14:23:07.466Z,70
2016-11-17T14:24:17.909Z,40
2016-11-17T14:25:28.843Z,35
2016-11-17T14:26:39.777Z,40
2016-11-17T14:29:15.220Z,50
2016-11-17T14:30:25.663Z,95
2016-11-17T14:31:36.107Z,85
2016-11-17T14:34:11.576Z,45
2016-11-17T14:35:22.034Z,60
2016-11-17T14:36:32.481Z,85
2016-11-17T14:37:42.927Z,85
2016-11-17T14:38:53.372Z,80
2016-11-17T14:40:03.824Z,35
2016-11-17T14:41:14.268Z,40
2016-11-17T14:42:24.713Z,80
2016-11-17T14:43:35.160Z,90
2016-11-17T14:44:45.812Z,70
2016-11-17T14:46:11.289Z,65
2016-11-17T14:47:21.734Z,85
2016-11-17T14:48:32.183Z,85
2016-11-17T14:51:09.211Z,40
2016-11-17T14:52:19.632Z,50
2016-11-17T14:53:44.603Z,35
2016-11-17T14:54:55.519Z,35
2016-11-17T14:56:20.488Z,85
2016-11-17T14:57:30.907Z,80
2016-11-17T14:58:41.323Z,80
2016-11-17T14:59:51.743Z,85
2016-11-17T15:01:02.200Z,35
2016-11-17T15:02:13.101Z,35
2016-11-17T15:03:23.518Z,30
2016-11-17T15:04:33.937Z,40
2016-11-17T15:05:44.355Z,30
2016-11-17T15:06:54.972Z,30
2016-11-17T15:08:05.392Z,35
2016-11-17T15:09:15.814Z,80
2016-11-17T15:10:26.237Z,80
2016-11-17T15:11:36.665Z,70
2016-11-17T15:12:47.080Z,70
2016-11-17T15:14:12.050Z,65
2016-11-17T15:15:22.470Z,65
2016-11-17T15:16:32.894Z,70
2016-11-17T15:17:43.310Z,70
2016-11-17T15:18:53.724Z,65
2016-11-17T15:20:04.143Z,65
2016-11-17T15:21:14.563Z,30
2016-11-17T15:22:24.978Z,25
2016-11-17T15:23:35.392Z,25
2016-11-17T15:24:45.929Z,25
2016-11-17T15:25:56.464Z,30
2016-11-17T15:27:07.004Z,75
2016-11-17T15:28:32.068Z,75
2016-11-17T15:29:42.607Z,45
2016-11-17T15:30:53.142Z,35
2016-11-17T15:32:03.689Z,40
2016-11-17T15:33:14.243Z,70
2016-11-17T15:34:24.780Z,40
2016-11-17T15:35:35.314Z,50
2016-11-17T15:36:45.760Z,35
2016-11-17T15:37:56.209Z,70
2016-11-17T15:39:06.690Z,70
2016-11-17T15:40:17.334Z,65
2016-11-17T15:41:27.777Z,65
2016-11-17T15:42:38.222Z,35
2016-11-17T15:43:48.663Z,65
2016-11-17T15:44:59.109Z,65
2016-11-17T15:46:09.553Z,35
2016-11-17T15:47:20.484Z,55
2016-11-17T15:48:30.922Z,55
2016-11-17T15:49:55.951Z,60
2016-11-17T15:51:07.084Z,60
2016-11-17T15:52:17.532Z,55
2016-11-17T15:53:27.983Z,55
2016-11-17T15:54:38.429Z,55
2016-11-17T15:55:48.873Z,55
2016-11-17T15:56:59.518Z,55
2016-11-17T15:58:09.961Z,55
2016-11-17T15:59:20.406Z,55
2016-11-17T16:00:30.849Z,50
2016-11-17T16:01:41.296Z,25
2016-11-17T16:02:51.939Z,50
2016-11-17T16:04:02.385Z,45
2016-11-17T16:05:12.833Z,45
2016-11-17T16:06:23.285Z,50
2016-11-17T16:07:48.275Z,45
2016-11-17T16:08:58.720Z,50
2016-11-17T16:11:34.165Z,50
2016-11-17T16:12:44.817Z,50
2016-11-17T16:14:09.807Z,50
2016-11-17T16:15:20.258Z,50
2016-11-17T16:16:30.699Z,45
2016-11-17T16:17:41.151Z,40
2016-11-17T16:19:06.140Z,50
2016-11-17T16:20:16.588Z,45
2016-11-17T16:21:27.035Z,45
2016-11-17T16:22:37.490Z,45
2016-11-17T16:23:48.134Z,45
2016-11-17T16:24:58.591Z,30
2016-11-17T16:26:09.525Z,45
2016-11-17T16:27:19.982Z,25
2016-11-17T16:29:55.417Z,50
2016-11-17T16:31:05.896Z,50
2016-11-17T16:32:16.341Z,45
2016-11-17T16:33:26.785Z,45
2016-11-17T16:34:37.230Z,40
2016-11-17T16:35:47.878Z,40
2016-11-17T16:36:58.323Z,45
2016-11-17T16:38:08.794Z,50
2016-11-17T16:39:19.239Z,50
2016-11-17T16:40:29.694Z,50
2016-11-17T16:41:40.375Z,40
2016-11-17T16:42:50.826Z,40
2016-11-17T16:44:01.269Z,50
2016-11-17T16:45:12.110Z,50
2016-11-17T16:46:22.558Z,50
2016-11-17T16:47:33.510Z,50
2016-11-17T16:48:43.957Z,55
2016-11-17T16:49:54.413Z,50
2016-11-17T16:51:04.860Z,30
2016-11-17T16:52:15.303Z,45
2016-11-17T16:53:25.743Z,30
2016-11-17T16:54:36.227Z,45
2016-11-17T16:55:46.676Z,40
2016-11-17T16:56:57.119Z,35
2016-11-17T16:58:07.562Z,50
2016-11-17T16:59:32.551Z,50
2016-11-17T17:00:43.005Z,50
2016-11-17T17:01:53.461Z,50
2016-11-17T17:03:03.911Z,50
2016-11-17T17:04:14.357Z,45
2016-11-17T17:05:24.801Z,40
2016-11-17T17:06:35.732Z,40
2016-11-17T17:07:46.183Z,40
2016-11-17T17:08:56.628Z,40
2016-11-17T17:10:07.075Z,45
2016-11-17T17:11:17.521Z,45
2016-11-17T17:12:27.963Z,25
2016-11-17T17:13:38.407Z,25
2016-11-17T17:14:48.852Z,45
2016-11-17T17:15:59.503Z,25
2016-11-17T17:17:09.953Z,30
2016-11-17T17:18:20.399Z,40
2016-11-17T17:19:30.876Z,25
2016-11-17T17:20:41.480Z,25
2016-11-17T17:21:52.725Z,30
2016-11-17T17:23:03.387Z,50
2016-11-17T17:24:14.018Z,25
2016-11-17T17:25:24.566Z,25
2016-11-17T17:26:35.023Z,25
2016-11-17T17:27:45.472Z,25
2016-11-17T17:29:25.013Z,30
2016-11-17T17:30:35.495Z,20
2016-11-17T17:31:45.942Z,20
2016-11-17T17:32:56.583Z,35
2016-11-17T17:34:07.035Z,40
2016-11-17T17:35:17.484Z,35
2016-11-17T17:36:28.415Z,35
2016-11-17T17:37:38.858Z,25
2016-11-17T17:38:49.300Z,25
2016-11-17T17:39:59.746Z,25
2016-11-17T17:41:10.198Z,25
2016-11-17T17:42:20.654Z,20
2016-11-17T17:43:31.623Z,15
2016-11-17T17:44:42.072Z,15
2016-11-17T17:46:07.091Z,15